Time;durP1;ratioP1;P1;durP2;ratioP2;P2;SDS_P1;SDS_P2;PMS_P1;PMS_P2;Temp;Humidity;BMP_temperature;BMP_pressure;BME280_temperature;BME280_humidity;BME280_pressure;Samples;Min_cycle;Max_cycle;Signal;HPM_P1;HPM_P2
2023/05/23 00:01:37;;;;;;;13.63;6.32;;;13.30;99.90;;;;;;6150669;23;20053;-95
2023/05/23 00:04:03;;;;;;;11.38;5.93;;;13.40;99.90;;;;;;6150991;23;20010;-93
2023/05/23 00:06:29;;;;;;;18.00;6.20;;;13.30;99.90;;;;;;6152502;23;20006;-92
2023/05/23 00:08:55;;;;;;;15.50;5.85;;;13.30;99.90;;;;;;6161540;23;20048;-93
2023/05/23 00:11:25;;;;;;;13.73;7.13;;;13.20;99.90;;;;;;6161298;23;20006;-93
2023/05/23 00:13:52;;;;;;;9.10;5.82;;;13.20;99.90;;;;;;6105419;23;20014;-92
2023/05/23 00:16:18;;;;;;;12.90;5.68;;;13.10;99.90;;;;;;6127669;23;20097;-94
2023/05/23 00:18:44;;;;;;;11.20;5.82;;;13.10;99.90;;;;;;6152000;23;20038;-92
2023/05/23 00:21:12;;;;;;;9.60;5.45;;;13.10;99.90;;;;;;6152344;23;20073;-91
2023/05/23 00:23:42;;;;;;;11.65;5.72;;;13.00;99.90;;;;;;6151656;23;20085;-92
2023/05/23 00:26:11;;;;;;;10.70;5.57;;;12.90;99.90;;;;;;6151909;23;20001;-93
2023/05/23 00:28:37;;;;;;;11.55;5.32;;;12.90;99.90;;;;;;6151291;23;20450;-93
2023/05/23 00:31:02;;;;;;;9.77;5.95;;;12.80;99.90;;;;;;6151741;23;20036;-92
2023/05/23 00:33:31;;;;;;;11.20;5.90;;;12.70;99.90;;;;;;6151591;23;20049;-93
2023/05/23 00:35:58;;;;;;;11.80;6.53;;;12.70;99.90;;;;;;6151003;23;20014;-91
2023/05/23 00:38:23;;;;;;;14.18;6.80;;;12.60;99.90;;;;;;6151558;23;20013;-92
2023/05/23 00:40:49;;;;;;;12.40;4.85;;;12.60;99.90;;;;;;6150941;23;20061;-91
2023/05/23 00:43:15;;;;;;;12.93;5.72;;;12.50;99.90;;;;;;6151027;23;20006;-93
2023/05/23 00:45:40;;;;;;;15.02;6.60;;;12.50;99.90;;;;;;6151113;23;20059;-92
2023/05/23 00:48:07;;;;;;;13.32;6.05;;;12.50;99.90;;;;;;6151440;23;20013;-92
2023/05/23 00:50:35;;;;;;;11.63;5.10;;;12.40;99.90;;;;;;6151149;23;20006;-91
2023/05/23 00:53:01;;;;;;;13.63;5.22;;;12.40;99.90;;;;;;6151075;23;20021;-93
2023/05/23 00:55:28;;;;;;;12.25;5.78;;;12.40;99.90;;;;;;6151257;23;20053;-93
2023/05/23 00:57:57;;;;;;;8.75;5.15;;;12.40;99.90;;;;;;6151167;23;20006;-91
2023/05/23 01:00:24;;;;;;;10.43;5.18;;;12.40;99.90;;;;;;6153303;23;20056;-91
2023/05/23 01:02:50;;;;;;;11.50;5.22;;;12.40;99.90;;;;;;6131242;23;20406;-90
2023/05/23 01:05:17;;;;;;;15.40;7.13;;;12.40;99.90;;;;;;6158761;23;20002;-94
2023/05/23 01:07:44;;;;;;;10.00;5.57;;;12.40;99.90;;;;;;6159596;23;20014;-92
2023/05/23 01:10:10;;;;;;;11.48;5.18;;;12.40;99.90;;;;;;6167520;23;20034;-91
2023/05/23 01:13:07;;;;;;;9.50;4.90;;;12.40;99.90;;;;;;6178006;23;20021;-88
2023/05/23 01:15:43;;;;;;;9.68;5.18;;;12.40;99.90;;;;;;6152665;23;20543;-90
2023/05/23 01:18:20;;;;;;;11.40;5.13;;;12.30;99.90;;;;;;6158678;23;20002;-95
2023/05/23 01:21:02;;;;;;;10.65;4.80;;;12.30;99.90;;;;;;6158434;23;20009;-93
2023/05/23 01:23:58;;;;;;;7.72;4.35;;;12.30;99.90;;;;;;6161736;23;20070;-93
2023/05/23 01:26:43;;;;;;;11.88;5.05;;;12.30;99.90;;;;;;6177603;23;20028;-87
2023/05/23 01:29:31;;;;;;;11.65;5.43;;;12.20;99.90;;;;;;6153247;23;20025;-88
2023/05/23 01:31:58;;;;;;;10.65;5.53;;;12.20;99.90;;;;;;6176647;23;20029;-90
2023/05/23 01:34:24;;;;;;;10.20;5.55;;;12.10;99.90;;;;;;6178437;23;20005;-86
2023/05/23 01:36:56;;;;;;;9.13;5.15;;;12.10;99.90;;;;;;6177599;23;20012;-91
2023/05/23 01:39:23;;;;;;;7.80;5.22;;;12.10;99.90;;;;;;6166717;23;20477;-92
2023/05/23 01:41:50;;;;;;;10.77;5.45;;;12.00;99.90;;;;;;6162913;23;20382;-93
2023/05/23 01:44:16;;;;;;;15.40;5.68;;;12.00;99.90;;;;;;6158724;23;20022;-93
2023/05/23 01:46:43;;;;;;;8.60;5.38;;;12.00;99.90;;;;;;6156551;23;20002;-94
2023/05/23 01:49:12;;;;;;;9.82;5.40;;;12.00;99.90;;;;;;6155723;23;20047;-93
2023/05/23 01:51:38;;;;;;;8.77;5.10;;;11.90;99.90;;;;;;6157432;23;19998;-93
2023/05/23 01:54:04;;;;;;;7.53;4.32;;;11.90;99.90;;;;;;6156386;23;20014;-93
2023/05/23 01:56:30;;;;;;;13.85;4.90;;;11.90;99.90;;;;;;6158057;23;20013;-93
2023/05/23 01:58:56;;;;;;;9.73;4.53;;;11.90;99.90;;;;;;6155273;23;20025;-93
2023/05/23 02:01:22;;;;;;;9.63;4.75;;;11.90;99.90;;;;;;6155023;23;20461;-93
2023/05/23 02:03:48;;;;;;;10.85;4.82;;;11.90;99.90;;;;;;6154110;23;20001;-91
2023/05/23 02:06:14;;;;;;;8.43;4.15;;;11.90;99.90;;;;;;6130678;23;20063;-95
2023/05/23 02:08:39;;;;;;;8.82;4.35;;;11.90;99.90;;;;;;6152918;23;20002;-93
2023/05/23 02:11:07;;;;;;;8.95;4.07;;;11.80;99.90;;;;;;6153482;23;20006;-93
2023/05/23 02:13:33;;;;;;;9.60;4.63;;;11.80;99.90;;;;;;6153163;23;20025;-94
2023/05/23 02:15:59;;;;;;;8.43;4.60;;;11.70;99.90;;;;;;6152853;23;20010;-94
2023/05/23 02:18:25;;;;;;;7.63;4.05;;;11.70;99.90;;;;;;6153049;23;20010;-94
2023/05/23 02:20:51;;;;;;;8.25;4.57;;;11.80;99.90;;;;;;6153126;23;20481;-93
2023/05/23 02:23:16;;;;;;;10.25;4.47;;;11.80;99.90;;;;;;6151839;23;20548;-93
2023/05/23 02:25:42;;;;;;;7.55;3.63;;;11.80;99.90;;;;;;6153175;23;20006;-92
2023/05/23 02:28:08;;;;;;;8.90;3.78;;;11.80;99.90;;;;;;6152177;23;20017;-93
2023/05/23 02:30:33;;;;;;;10.60;4.55;;;11.80;99.90;;;;;;6152834;23;20335;-92
2023/05/23 02:33:04;;;;;;;8.50;4.25;;;11.80;99.90;;;;;;6152990;23;20474;-93
2023/05/23 02:35:29;;;;;;;7.85;3.67;;;11.80;99.90;;;;;;6154391;23;20006;-92
2023/05/23 02:37:55;;;;;;;8.70;4.13;;;11.80;99.90;;;;;;6152309;23;20038;-92
2023/05/23 02:40:21;;;;;;;7.35;3.70;;;11.80;99.90;;;;;;6152464;23;20428;-93
2023/05/23 02:42:46;;;;;;;8.23;3.35;;;11.80;99.90;;;;;;6151707;23;20425;-92
2023/05/23 02:45:12;;;;;;;9.38;3.40;;;11.80;99.90;;;;;;6151592;23;20002;-92
2023/05/23 02:47:37;;;;;;;5.85;3.42;;;11.80;99.90;;;;;;6151891;23;20009;-91
2023/05/23 02:50:03;;;;;;;4.97;2.67;;;11.80;99.90;;;;;;6152303;23;20010;-92
2023/05/23 02:52:29;;;;;;;10.70;3.15;;;11.70;99.90;;;;;;6151615;23;20010;-93
2023/05/23 02:54:55;;;;;;;3.38;2.22;;;11.70;99.90;;;;;;6151175;23;20038;-95
2023/05/23 02:57:20;;;;;;;5.68;3.55;;;11.70;99.90;;;;;;6152849;23;20021;-95
2023/05/23 02:59:46;;;;;;;8.93;3.17;;;11.70;99.90;;;;;;6153744;23;20057;-92
2023/05/23 03:02:11;;;;;;;4.78;2.78;;;11.60;99.90;;;;;;6145778;23;19994;-91
2023/05/23 03:04:37;;;;;;;6.45;2.63;;;11.60;99.90;;;;;;6157828;23;20010;-93
2023/05/23 03:07:03;;;;;;;9.85;2.63;;;11.60;99.90;;;;;;6153549;23;20025;-94
2023/05/23 03:09:29;;;;;;;4.65;2.42;;;11.60;99.90;;;;;;6153102;23;20006;-93
2023/05/23 03:11:54;;;;;;;5.43;2.10;;;11.50;99.90;;;;;;6152741;23;20006;-94
2023/05/23 03:14:20;;;;;;;10.68;2.50;;;11.50;99.90;;;;;;6153213;23;20311;-92
2023/05/23 03:16:46;;;;;;;5.88;2.17;;;11.50;99.90;;;;;;6152329;23;20029;-90
2023/05/23 03:19:11;;;;;;;5.95;2.20;;;11.50;99.90;;;;;;6151962;23;20013;-94
2023/05/23 03:21:37;;;;;;;6.60;2.40;;;11.40;99.90;;;;;;6151902;23;20417;-93
2023/05/23 03:24:03;;;;;;;5.32;2.28;;;11.40;99.90;;;;;;6152106;23;20010;-92
2023/05/23 03:26:29;;;;;;;9.30;2.67;;;11.30;99.90;;;;;;6152771;23;20010;-93
2023/05/23 03:28:55;;;;;;;7.95;2.15;;;11.30;99.90;;;;;;6152021;23;20087;-94
2023/05/23 03:31:20;;;;;;;5.38;2.10;;;11.30;99.90;;;;;;6152554;23;20029;-93
2023/05/23 03:33:46;;;;;;;7.45;2.60;;;11.30;99.90;;;;;;6152516;23;20045;-94
2023/05/23 03:36:12;;;;;;;4.75;2.20;;;11.30;99.90;;;;;;6163734;23;20025;-92
2023/05/23 03:38:37;;;;;;;7.07;2.83;;;11.20;99.90;;;;;;6157114;23;20010;-93
2023/05/23 03:41:03;;;;;;;8.63;2.70;;;11.20;99.90;;;;;;6152068;23;20014;-93
2023/05/23 03:43:29;;;;;;;6.82;2.28;;;11.20;99.90;;;;;;6152816;23;20017;-92
2023/05/23 03:45:54;;;;;;;3.78;2.10;;;11.20;99.90;;;;;;6152584;23;20034;-94
2023/05/23 03:48:20;;;;;;;4.38;2.20;;;11.10;99.90;;;;;;6154342;23;20006;-93
2023/05/23 03:50:47;;;;;;;6.32;2.40;;;11.10;99.90;;;;;;6153438;23;20013;-92
2023/05/23 03:53:12;;;;;;;8.88;2.20;;;11.10;99.90;;;;;;6152063;23;20152;-92
2023/05/23 03:55:38;;;;;;;5.68;2.03;;;11.00;99.90;;;;;;6152596;23;20029;-94
2023/05/23 03:58:04;;;;;;;5.97;2.38;;;10.90;99.90;;;;;;6127974;23;20004;-93
2023/05/23 04:00:30;;;;;;;6.50;2.70;;;10.80;99.90;;;;;;6150938;23;20010;-92
2023/05/23 04:02:56;;;;;;;3.88;2.30;;;10.80;99.90;;;;;;6150576;23;20006;-94
2023/05/23 04:05:21;;;;;;;8.43;2.75;;;10.70;99.90;;;;;;6150976;23;20434;-92
2023/05/23 04:07:47;;;;;;;6.82;3.22;;;10.70;99.90;;;;;;6150871;23;20012;-93
2023/05/23 04:10:13;;;;;;;13.40;3.63;;;10.70;99.90;;;;;;6151178;23;20049;-93
2023/05/23 04:12:40;;;;;;;9.38;3.90;;;10.70;99.90;;;;;;6151188;23;20012;-93
2023/05/23 04:15:07;;;;;;;8.98;3.47;;;10.80;99.90;;;;;;6127388;23;20284;-93
2023/05/23 04:17:32;;;;;;;5.60;3.60;;;10.80;99.90;;;;;;6151899;23;20006;-94
2023/05/23 04:19:58;;;;;;;5.65;3.08;;;10.80;99.90;;;;;;6154811;23;20002;-92
2023/05/23 04:22:24;;;;;;;9.45;3.53;;;10.80;99.90;;;;;;6160567;23;20002;-93
2023/05/23 04:24:49;;;;;;;8.15;3.17;;;10.80;99.90;;;;;;6154458;23;20397;-91
2023/05/23 04:27:15;;;;;;;7.28;3.20;;;10.80;99.90;;;;;;6159998;23;20009;-92
2023/05/23 04:29:41;;;;;;;5.63;3.00;;;10.80;99.90;;;;;;6156718;23;20025;-93
2023/05/23 04:32:07;;;;;;;7.30;3.58;;;10.90;99.90;;;;;;6162587;23;20010;-93
2023/05/23 04:34:33;;;;;;;7.78;4.10;;;10.80;99.90;;;;;;6160063;23;20445;-93
2023/05/23 04:37:01;;;;;;;8.80;3.90;;;10.70;99.90;;;;;;6135346;23;20077;-93
2023/05/23 04:39:31;;;;;;;7.22;3.63;;;10.70;99.90;;;;;;6157801;23;20006;-94
2023/05/23 04:41:58;;;;;;;6.30;3.90;;;10.60;99.90;;;;;;6157501;23;20008;-94
2023/05/23 04:44:25;;;;;;;10.15;4.63;;;10.60;99.90;;;;;;6157137;23;20006;-94
2023/05/23 04:46:51;;;;;;;10.13;3.67;;;10.60;99.90;;;;;;6153858;23;20006;-92
2023/05/23 04:49:17;;;;;;;10.38;3.90;;;10.70;99.90;;;;;;6154155;23;20006;-92
2023/05/23 04:51:42;;;;;;;7.93;3.70;;;10.70;99.90;;;;;;6156493;23;20429;-93
2023/05/23 04:54:08;;;;;;;8.65;4.13;;;10.70;99.90;;;;;;6156133;23;20010;-93
2023/05/23 04:56:34;;;;;;;8.68;3.60;;;10.70;99.90;;;;;;6159684;23;20017;-95
2023/05/23 04:58:59;;;;;;;8.10;3.83;;;10.60;99.90;;;;;;6155708;23;20441;-92
2023/05/23 05:01:26;;;;;;;5.57;3.13;;;10.60;99.90;;;;;;6153738;23;20453;-93
2023/05/23 05:03:52;;;;;;;7.43;2.95;;;10.70;99.90;;;;;;6159064;23;20033;-93
2023/05/23 05:06:20;;;;;;;6.70;2.75;;;10.70;99.90;;;;;;6154280;23;20040;-92
2023/05/23 05:08:46;;;;;;;8.05;3.13;;;10.80;99.90;;;;;;6154393;23;20506;-91
2023/05/23 05:11:12;;;;;;;6.38;3.60;;;10.80;99.90;;;;;;6153587;23;20096;-92
2023/05/23 05:13:37;;;;;;;7.15;3.20;;;10.90;99.90;;;;;;6152870;23;20457;-93
2023/05/23 05:16:03;;;;;;;8.00;3.72;;;10.90;99.90;;;;;;6153313;23;20010;-93
2023/05/23 05:18:32;;;;;;;8.50;3.85;;;10.90;99.90;;;;;;6152638;23;20017;-91
2023/05/23 05:20:58;;;;;;;9.13;3.58;;;10.90;99.90;;;;;;6128818;23;20062;-93
2023/05/23 05:23:27;;;;;;;9.35;3.70;;;10.90;99.90;;;;;;6153979;23;20029;-92
2023/05/23 05:25:53;;;;;;;8.60;3.50;;;10.80;99.90;;;;;;6156032;23;20010;-91
2023/05/23 05:28:20;;;;;;;5.38;3.20;;;10.80;99.90;;;;;;6158552;23;20026;-93
2023/05/23 05:30:47;;;;;;;6.47;3.35;;;10.90;99.90;;;;;;6156706;23;20047;-92
2023/05/23 05:33:13;;;;;;;5.75;3.05;;;10.90;99.90;;;;;;6155583;23;20084;-93
2023/05/23 05:35:39;;;;;;;11.20;3.35;;;10.90;99.90;;;;;;6156673;23;20013;-93
2023/05/23 05:38:07;;;;;;;7.07;3.17;;;10.90;99.90;;;;;;6168810;23;20010;-92
2023/05/23 05:40:32;;;;;;;8.50;3.28;;;10.90;99.90;;;;;;6176703;23;19990;-93
2023/05/23 05:42:58;;;;;;;5.45;2.78;;;10.90;99.90;;;;;;6177296;23;20005;-93
2023/05/23 05:45:24;;;;;;;5.25;2.60;;;10.90;99.90;;;;;;6177321;23;19997;-91
2023/05/23 05:47:50;;;;;;;6.25;3.08;;;11.00;99.90;;;;;;6177540;23;20009;-92
2023/05/23 05:50:18;;;;;;;6.10;2.80;;;11.00;99.90;;;;;;6176161;23;19994;-92
2023/05/23 05:52:45;;;;;;;5.53;3.03;;;11.00;99.90;;;;;;6174402;23;20041;-94
2023/05/23 05:55:11;;;;;;;8.18;3.10;;;11.00;99.90;;;;;;6174608;23;20006;-91
2023/05/23 05:57:40;;;;;;;5.18;2.80;;;11.00;99.90;;;;;;6171442;23;20006;-95
2023/05/23 06:00:14;;;;;;;6.95;2.95;;;11.00;99.90;;;;;;6154916;23;20040;-93
2023/05/23 06:02:45;;;;;;;5.38;3.08;;;11.00;99.90;;;;;;6152771;23;20106;-93
2023/05/23 06:05:12;;;;;;;7.93;2.97;;;11.00;99.90;;;;;;6153797;23;20006;-95
2023/05/23 06:07:38;;;;;;;6.03;3.03;;;11.10;99.90;;;;;;6158922;23;20002;-92
2023/05/23 06:10:04;;;;;;;6.63;3.10;;;11.10;99.90;;;;;;6157651;23;20093;-93
2023/05/23 06:12:30;;;;;;;7.55;2.78;;;11.20;99.90;;;;;;6153722;23;20002;-95
2023/05/23 06:14:55;;;;;;;3.97;2.20;;;11.30;99.90;;;;;;6152441;23;20073;-94
2023/05/23 06:17:21;;;;;;;9.68;2.85;;;11.30;99.90;;;;;;6152835;23;20006;-93
2023/05/23 06:19:47;;;;;;;6.13;2.90;;;11.40;99.90;;;;;;6152082;23;20010;-94
2023/05/23 06:22:13;;;;;;;11.25;2.53;;;11.40;99.90;;;;;;6151914;23;20010;-94
2023/05/23 06:24:38;;;;;;;4.72;2.70;;;11.50;99.90;;;;;;6151337;23;20116;-91
2023/05/23 06:27:04;;;;;;;5.53;2.47;;;11.50;99.90;;;;;;6151638;23;20006;-93
2023/05/23 06:29:30;;;;;;;5.32;2.30;;;11.60;99.90;;;;;;6150811;23;20025;-94
2023/05/23 06:31:56;;;;;;;4.97;2.22;;;11.70;99.90;;;;;;6151070;23;20444;-93
2023/05/23 06:34:22;;;;;;;5.40;2.58;;;11.80;99.90;;;;;;6151037;23;20500;-93
2023/05/23 06:36:50;;;;;;;7.80;2.45;;;11.80;99.90;;;;;;6154269;23;20002;-93
2023/05/23 06:39:17;;;;;;;3.70;2.58;;;11.80;99.90;;;;;;6154530;23;20392;-94
2023/05/23 06:41:43;;;;;;;8.00;2.35;;;11.90;99.90;;;;;;6151380;23;20462;-93
2023/05/23 06:44:08;;;;;;;5.30;2.38;;;12.00;99.90;;;;;;6151960;23;20054;-92
2023/05/23 06:46:34;;;;;;;6.07;2.40;;;12.00;99.90;;;;;;6156802;23;20006;-93
2023/05/23 06:49:00;;;;;;;5.18;2.65;;;12.10;99.90;;;;;;6166708;23;20004;-93
2023/05/23 06:51:27;;;;;;;8.02;2.40;;;12.20;99.90;;;;;;6174665;23;20021;-95
2023/05/23 06:53:55;;;;;;;6.20;2.05;;;12.30;99.90;;;;;;6165399;23;20069;-94
2023/05/23 06:56:23;;;;;;;4.13;2.08;;;12.40;99.90;;;;;;6158456;23;20013;-92
2023/05/23 06:58:49;;;;;;;3.13;1.80;;;12.50;99.90;;;;;;6150651;23;20731;-94
2023/05/23 07:01:15;;;;;;;4.75;1.98;;;12.60;99.90;;;;;;6151251;23;20002;-92
2023/05/23 07:03:42;;;;;;;4.55;2.25;;;12.70;99.90;;;;;;6151052;23;20006;-93
2023/05/23 07:06:08;;;;;;;7.72;2.33;;;12.80;99.90;;;;;;6151128;23;20377;-93
2023/05/23 07:08:33;;;;;;;6.97;2.42;;;12.90;99.90;;;;;;6150965;23;20041;-94
2023/05/23 07:10:59;;;;;;;6.15;2.33;;;12.90;99.90;;;;;;6151175;23;20358;-94
2023/05/23 07:13:25;;;;;;;3.42;2.33;;;12.90;99.90;;;;;;6150938;23;20022;-94
2023/05/23 07:15:50;;;;;;;7.72;2.08;;;12.90;99.90;;;;;;6150539;23;20397;-93
2023/05/23 07:18:16;;;;;;;5.82;2.22;;;13.00;99.90;;;;;;6125634;23;20548;-93
2023/05/23 07:20:42;;;;;;;7.85;2.63;;;13.10;99.90;;;;;;6159059;23;20002;-92
2023/05/23 07:23:07;;;;;;;5.05;2.00;;;13.20;99.90;;;;;;6151154;23;20017;-93
2023/05/23 07:25:33;;;;;;;5.70;2.25;;;13.20;99.90;;;;;;6151279;23;20029;-94
2023/05/23 07:27:59;;;;;;;7.40;2.10;;;13.40;99.90;;;;;;6151149;23;20468;-93
2023/05/23 07:30:24;;;;;;;8.50;2.35;;;13.40;99.90;;;;;;6150898;23;20404;-93
2023/05/23 07:32:51;;;;;;;5.88;2.47;;;13.50;99.90;;;;;;6151493;23;20089;-94
2023/05/23 07:35:17;;;;;;;6.45;2.60;;;13.60;99.90;;;;;;6152788;23;20053;-93
2023/05/23 07:37:44;;;;;;;5.07;2.17;;;13.60;99.90;;;;;;6153824;23;20049;-93
2023/05/23 07:40:10;;;;;;;5.85;2.05;;;13.70;99.90;;;;;;6131595;23;20006;-93
2023/05/23 07:42:36;;;;;;;11.80;2.63;;;13.80;99.90;;;;;;6152029;23;20013;-93
2023/05/23 07:45:02;;;;;;;7.57;1.95;;;13.90;99.90;;;;;;6151586;23;20021;-93
2023/05/23 07:47:28;;;;;;;5.53;2.25;;;13.90;98.70;;;;;;6152873;23;20434;-94
2023/05/23 07:49:53;;;;;;;5.60;2.30;;;14.00;97.80;;;;;;6127026;23;20013;-93
2023/05/23 07:52:20;;;;;;;8.70;2.40;;;14.20;97.00;;;;;;6152469;23;20042;-93
2023/05/23 07:54:45;;;;;;;6.13;2.00;;;14.30;96.20;;;;;;6159793;23;20044;-92
2023/05/23 07:57:11;;;;;;;6.00;2.30;;;14.30;95.30;;;;;;6155645;23;19998;-94
2023/05/23 07:59:37;;;;;;;4.80;2.75;;;14.40;94.70;;;;;;6153957;23;20092;-94
2023/05/23 08:02:03;;;;;;;9.18;2.42;;;14.60;94.30;;;;;;6153604;23;20006;-94
2023/05/23 08:04:29;;;;;;;5.03;2.30;;;14.70;93.80;;;;;;6151959;23;20010;-93
2023/05/23 08:06:55;;;;;;;6.13;2.38;;;14.80;93.20;;;;;;6151997;23;20013;-92
2023/05/23 08:09:22;;;;;;;9.38;2.30;;;14.90;92.70;;;;;;6153889;23;20010;-94
2023/05/23 08:11:48;;;;;;;5.18;2.55;;;15.00;92.50;;;;;;6161532;23;20009;-87
2023/05/23 08:14:14;;;;;;;5.68;2.47;;;15.00;92.00;;;;;;6164157;23;20381;-91
2023/05/23 08:16:40;;;;;;;4.00;1.90;;;15.00;91.40;;;;;;6154188;23;20009;-94
2023/05/23 08:19:05;;;;;;;6.22;2.10;;;15.10;91.10;;;;;;6156327;23;20006;-95
2023/05/23 08:21:31;;;;;;;5.90;2.10;;;15.10;90.10;;;;;;6155540;23;20005;-94
2023/05/23 08:23:57;;;;;;;10.52;2.13;;;15.20;88.60;;;;;;6155805;23;20017;-95
2023/05/23 08:26:23;;;;;;;5.82;2.20;;;15.30;86.80;;;;;;6155270;23;20010;-95
2023/05/23 08:28:49;;;;;;;7.60;2.40;;;15.30;85.60;;;;;;6158181;23;20046;-94
2023/05/23 08:31:14;;;;;;;3.90;1.90;;;15.50;84.80;;;;;;6155941;23;20018;-95
2023/05/23 08:33:40;;;;;;;5.53;1.65;;;15.60;83.90;;;;;;6155169;23;20018;-94
2023/05/23 08:36:06;;;;;;;6.80;2.38;;;15.60;82.20;;;;;;6132302;23;20005;-94
2023/05/23 08:38:31;;;;;;;6.75;2.50;;;15.70;80.90;;;;;;6155271;23;20065;-93
2023/05/23 08:41:00;;;;;;;7.82;2.03;;;15.80;79.80;;;;;;6154245;23;20061;-96
2023/05/23 08:43:27;;;;;;;6.43;1.90;;;15.90;78.70;;;;;;6155139;23;20010;-95
2023/05/23 08:45:53;;;;;;;7.55;2.33;;;16.00;77.80;;;;;;6167252;23;20017;-91
2023/05/23 08:48:20;;;;;;;3.45;1.73;;;16.10;76.80;;;;;;6166453;23;20065;-96
2023/05/23 08:50:47;;;;;;;4.63;1.88;;;16.20;76.10;;;;;;6134812;23;20004;-95
2023/05/23 08:53:19;;;;;;;5.47;1.80;;;16.30;75.50;;;;;;6155332;23;20084;-95
2023/05/23 08:55:53;;;;;;;9.15;2.47;;;16.40;74.50;;;;;;6156098;23;20013;-94
2023/05/23 08:58:19;;;;;;;4.97;2.10;;;16.40;73.30;;;;;;6160316;23;20006;-94
2023/05/23 09:00:46;;;;;;;4.70;2.10;;;16.50;72.70;;;;;;6163823;23;20061;-95
2023/05/23 09:03:13;;;;;;;6.97;1.80;;;16.60;71.90;;;;;;6161388;23;20010;-94
2023/05/23 09:05:39;;;;;;;5.18;2.00;;;16.60;71.40;;;;;;6157092;23;20429;-95
2023/05/23 09:08:04;;;;;;;6.57;2.00;;;16.70;71.50;;;;;;6154991;23;20013;-94
2023/05/23 09:10:30;;;;;;;6.50;2.22;;;16.80;71.60;;;;;;6160116;23;20085;-96
2023/05/23 09:12:57;;;;;;;6.72;2.38;;;16.90;72.20;;;;;;6157461;23;20080;-96
2023/05/23 09:15:23;;;;;;;10.10;2.40;;;16.90;70.80;;;;;;6157410;23;20010;-95
2023/05/23 09:17:49;;;;;;;5.35;2.10;;;17.00;70.60;;;;;;6156400;23;20161;-96
2023/05/23 09:20:16;;;;;;;5.28;2.05;;;17.10;70.80;;;;;;6153356;23;20017;-94
2023/05/23 09:22:48;;;;;;;6.32;2.15;;;17.20;70.40;;;;;;6153613;23;20009;-96
2023/05/23 09:25:14;;;;;;;7.30;2.20;;;17.20;69.70;;;;;;6157014;23;20017;-96
2023/05/23 09:27:40;;;;;;;7.55;2.25;;;17.30;69.70;;;;;;6157127;23;20006;-96
2023/05/23 09:30:07;;;;;;;8.85;2.35;;;17.40;69.50;;;;;;6154694;23;20024;-96
2023/05/23 09:32:32;;;;;;;5.10;2.10;;;17.50;69.40;;;;;;6153106;23;20182;-94
2023/05/23 09:35:02;;;;;;;7.82;2.50;;;17.60;69.10;;;;;;6153352;23;20002;-92
2023/05/23 09:37:38;;;;;;;8.93;2.53;;;17.60;68.70;;;;;;6130262;23;20069;-93
2023/05/23 09:40:14;;;;;;;6.07;2.05;;;17.60;68.20;;;;;;6152997;23;20453;-94
2023/05/23 09:42:47;;;;;;;10.88;2.40;;;17.50;68.00;;;;;;6155009;23;20016;-92
2023/05/23 09:45:15;;;;;;;11.43;2.70;;;17.40;68.20;;;;;;6129240;23;20028;-94
2023/05/23 09:47:50;;;;;;;13.27;2.33;;;17.40;68.30;;;;;;6152972;23;20180;-94
2023/05/23 09:50:16;;;;;;;12.20;3.00;;;17.30;68.50;;;;;;6157440;23;20081;-92
2023/05/23 09:52:42;;;;;;;5.40;2.65;;;17.40;68.80;;;;;;6162825;23;20017;-93
2023/05/23 09:55:08;;;;;;;7.22;3.00;;;17.60;68.80;;;;;;6159644;23;20013;-93
2023/05/23 09:57:36;;;;;;;10.70;2.78;;;17.70;68.70;;;;;;6157939;23;20010;-92
2023/05/23 10:00:12;;;;;;;8.80;2.83;;;17.90;68.50;;;;;;6164034;23;20034;-92
2023/05/23 10:02:56;;;;;;;8.77;3.67;;;18.20;68.40;;;;;;6152415;23;20005;-93
2023/05/23 10:05:33;;;;;;;7.38;3.17;;;18.30;67.90;;;;;;6171899;23;20010;-92
2023/05/23 10:08:02;;;;;;;9.35;3.38;;;18.40;68.20;;;;;;6151901;23;20002;-94
2023/05/23 10:10:31;;;;;;;11.13;3.72;;;18.70;68.40;;;;;;6172024;23;19993;-94
2023/05/23 10:13:00;;;;;;;7.47;3.00;;;18.80;68.00;;;;;;6176347;23;20009;-93
2023/05/23 10:15:33;;;;;;;11.57;3.53;;;18.90;68.00;;;;;;6169011;23;20085;-92
2023/05/23 10:18:16;;;;;;;6.60;3.15;;;18.90;68.30;;;;;;6174756;23;20006;-91
2023/05/23 10:20:46;;;;;;;8.82;3.30;;;19.00;68.70;;;;;;6170550;23;20029;-93
2023/05/23 10:23:12;;;;;;;11.55;4.47;;;19.00;68.80;;;;;;6169422;23;20022;-92
2023/05/23 10:25:40;;;;;;;9.75;4.50;;;19.20;69.20;;;;;;6164317;23;20005;-94
2023/05/23 10:28:05;;;;;;;10.68;4.68;;;19.40;68.90;;;;;;6158334;23;20005;-93
2023/05/23 10:30:33;;;;;;;9.82;4.15;;;19.60;68.70;;;;;;6155380;23;20018;-95
2023/05/23 10:33:00;;;;;;;8.60;4.10;;;20.00;68.30;;;;;;6155184;23;20109;-95
2023/05/23 10:35:39;;;;;;;9.20;4.03;;;20.00;67.90;;;;;;6154759;23;20037;-95
2023/05/23 10:38:14;;;;;;;8.82;4.18;;;20.10;68.10;;;;;;6128644;23;20438;-95
2023/05/23 10:41:10;;;;;;;13.65;5.00;;;20.40;68.00;;;;;;6128947;23;20009;-94
2023/05/23 10:43:50;;;;;;;8.30;3.95;;;20.60;67.60;;;;;;6153180;23;20006;-94
2023/05/23 10:46:20;;;;;;;8.75;4.22;;;20.90;67.30;;;;;;6152584;23;20029;-93
2023/05/23 10:48:46;;;;;;;11.27;4.70;;;20.80;66.50;;;;;;6152550;23;20070;-95
2023/05/23 10:51:13;;;;;;;8.23;4.22;;;20.80;66.60;;;;;;6152263;23;20079;-96
2023/05/23 10:53:46;;;;;;;11.43;4.65;;;20.90;66.60;;;;;;6151797;23;20018;-96
2023/05/23 10:56:22;;;;;;;12.02;3.75;;;20.80;66.50;;;;;;6151893;23;19998;-93
2023/05/23 10:58:55;;;;;;;10.32;3.95;;;20.80;67.20;;;;;;6152112;23;20006;-95
2023/05/23 11:01:22;;;;;;;11.55;4.30;;;21.00;67.20;;;;;;6152786;23;20002;-96
2023/05/23 11:03:50;;;;;;;15.50;4.80;;;21.00;66.90;;;;;;6152833;23;20469;-95
2023/05/23 11:06:40;;;;;;;13.10;4.78;;;21.00;66.70;;;;;;6152374;23;20382;-95
2023/05/23 11:09:09;;;;;;;11.48;4.38;;;21.20;67.00;;;;;;6154605;23;20013;-95
2023/05/23 11:11:52;;;;;;;7.90;3.92;;;21.30;66.70;;;;;;6127574;23;20089;-95
2023/05/23 11:14:19;;;;;;;12.82;4.40;;;21.30;66.60;;;;;;6126205;23;20021;-93
2023/05/23 11:16:47;;;;;;;9.38;4.03;;;21.10;66.50;;;;;;6151927;23;20010;-95
2023/05/23 11:19:24;;;;;;;9.82;3.92;;;20.90;66.90;;;;;;6151430;23;20014;-95
2023/05/23 11:22:00;;;;;;;12.50;3.75;;;20.80;67.50;;;;;;6128935;23;20002;-94
2023/05/23 11:24:45;;;;;;;9.25;4.05;;;20.70;68.00;;;;;;6151200;23;20334;-95
2023/05/23 11:27:11;;;;;;;11.00;5.25;;;20.70;68.40;;;;;;6128905;23;20002;-95
2023/05/23 11:29:37;;;;;;;11.48;4.20;;;20.80;68.60;;;;;;6152111;23;20022;-95
2023/05/23 11:32:12;;;;;;;13.57;4.30;;;20.80;68.50;;;;;;6158561;23;20145;-93
2023/05/23 11:34:39;;;;;;;15.77;3.65;;;20.80;68.50;;;;;;6157644;23;20010;-94
2023/05/23 11:37:05;;;;;;;9.18;4.03;;;20.80;68.70;;;;;;6163695;23;20033;-93
2023/05/23 11:39:30;;;;;;;10.70;4.18;;;20.90;68.40;;;;;;6162217;23;20057;-94
2023/05/23 11:42:00;;;;;;;9.32;4.20;;;20.80;68.00;;;;;;6133205;23;20009;-94
2023/05/23 11:44:26;;;;;;;6.43;3.65;;;20.70;67.50;;;;;;6158706;23;20006;-94
2023/05/23 11:47:03;;;;;;;11.98;4.10;;;20.60;67.50;;;;;;6155000;23;20449;-94
2023/05/23 11:49:30;;;;;;;9.32;3.78;;;20.50;67.50;;;;;;6153131;23;20014;-92
2023/05/23 11:51:57;;;;;;;11.23;4.68;;;20.60;67.70;;;;;;6152651;23;20089;-95
2023/05/23 11:54:24;;;;;;;10.32;4.20;;;20.70;67.60;;;;;;6151926;23;20089;-95
2023/05/23 11:56:52;;;;;;;9.32;3.92;;;20.80;67.00;;;;;;6158275;23;20002;-96
2023/05/23 11:59:17;;;;;;;15.95;4.90;;;20.80;66.80;;;;;;6158543;23;20006;-95
2023/05/23 12:01:43;;;;;;;10.80;4.05;;;20.80;66.30;;;;;;6154140;23;20002;-95
2023/05/23 12:04:12;;;;;;;18.55;6.68;;;20.80;66.00;;;;;;6129023;23;20006;-94
2023/05/23 12:06:40;;;;;;;11.05;4.30;;;20.80;66.30;;;;;;6153714;23;20006;-95
2023/05/23 12:09:06;;;;;;;10.50;3.90;;;21.00;66.60;;;;;;6158142;23;20006;-95
2023/05/23 12:11:33;;;;;;;8.40;4.50;;;21.20;66.50;;;;;;6158702;23;20040;-94
2023/05/23 12:14:01;;;;;;;12.27;4.53;;;21.50;65.40;;;;;;6164622;23;20028;-95
2023/05/23 12:16:28;;;;;;;10.15;4.40;;;21.80;64.40;;;;;;6167150;23;20009;-94
2023/05/23 12:18:57;;;;;;;9.23;4.40;;;22.10;63.10;;;;;;6173099;23;19998;-89
2023/05/23 12:21:26;;;;;;;9.02;4.32;;;22.50;62.40;;;;;;6176692;23;20037;-90
2023/05/23 12:23:52;;;;;;;9.35;4.22;;;22.60;61.30;;;;;;6175326;23;20018;-95
2023/05/23 12:26:17;;;;;;;8.00;3.88;;;22.80;60.80;;;;;;6158925;23;20013;-94
2023/05/23 12:28:44;;;;;;;12.18;4.50;;;22.90;60.10;;;;;;6159679;23;20460;-95
2023/05/23 12:31:20;;;;;;;9.13;4.32;;;22.80;59.80;;;;;;6167452;23;20017;-95
2023/05/23 12:33:47;;;;;;;14.05;4.65;;;22.90;60.00;;;;;;6169653;23;20075;-94
2023/05/23 12:36:21;;;;;;;8.82;4.28;;;23.10;59.80;;;;;;6169244;23;20025;-94
2023/05/23 12:38:48;;;;;;;9.15;4.07;;;23.10;59.70;;;;;;6174609;23;20017;-93
2023/05/23 12:41:18;;;;;;;9.73;4.35;;;23.10;59.40;;;;;;6176584;23;20002;-92
2023/05/23 12:43:51;;;;;;;5.80;4.28;;;23.10;58.90;;;;;;6176623;23;20073;-91
2023/05/23 12:46:18;;;;;;;12.55;4.65;;;23.00;58.50;;;;;;6172431;23;20010;-95